createdAt,value
2018-12-01T00:14:59.253Z,99244.07
2018-12-01T01:03:42.043Z,99234.89
2018-12-01T01:06:13.170Z,99241.35
2018-12-01T01:08:40.661Z,99235.92
2018-12-01T01:36:59.218Z,99241.70
2018-12-01T01:39:28.834Z,99246.91
2018-12-01T01:41:56.269Z,99244.13
2018-12-01T01:44:23.716Z,99248.69
2018-12-01T01:46:51.166Z,99248.98
2018-12-01T01:49:18.604Z,99240.74
2018-12-01T01:51:46.031Z,99247.48
2018-12-01T01:54:14.594Z,99243.75
2018-12-01T01:56:43.283Z,99248.88
2018-12-01T01:59:10.755Z,99247.61
2018-12-01T02:01:38.200Z,99242.26
2018-12-01T02:04:05.657Z,99238.89
2018-12-01T02:06:33.107Z,99236.52
2018-12-01T02:09:01.666Z,99237.20
2018-12-01T02:11:29.113Z,99233.01
2018-12-01T02:13:56.557Z,99232.36
2018-12-01T02:16:25.207Z,99228.12
2018-12-01T02:18:52.692Z,99225.73
2018-12-01T02:21:20.512Z,99231.11
2018-12-01T02:23:49.173Z,99236.33
2018-12-01T02:26:16.622Z,99230.02
2018-12-01T02:28:44.039Z,99232.56
2018-12-01T02:31:11.488Z,99229.80
2018-12-01T02:33:38.936Z,99228.83
2018-12-01T02:36:06.379Z,99219.48
2018-12-01T02:38:33.829Z,99216.36
2018-12-01T02:41:01.282Z,99222.63
2018-12-01T02:43:28.723Z,99213.94
2018-12-01T02:46:19.555Z,99219.00
2018-12-01T02:48:47.023Z,99215.75
2018-12-01T02:51:14.487Z,99214.36
2018-12-01T02:53:41.905Z,99212.97
2018-12-01T02:56:09.371Z,99215.20
2018-12-01T02:58:36.798Z,99212.61
2018-12-01T03:01:04.243Z,99217.38
2018-12-01T03:03:32.039Z,99215.56
2018-12-01T03:05:59.481Z,99215.55
2018-12-01T03:08:27.858Z,99218.16
2018-12-01T03:10:55.337Z,99212.19
2018-12-01T03:13:22.769Z,99218.33
2018-12-01T03:15:50.213Z,99220.42
2018-12-01T03:18:17.663Z,99223.49
2018-12-01T03:20:46.223Z,99218.98
2018-12-01T03:23:13.671Z,99209.02
2018-12-01T03:25:41.097Z,99215.45
2018-12-01T03:28:08.577Z,99210.75
2018-12-01T03:30:36.011Z,99212.20
2018-12-01T03:33:03.458Z,99199.97
2018-12-01T03:35:30.934Z,99203.38
2018-12-01T03:37:58.383Z,99202.98
2018-12-01T03:40:25.835Z,99208.83
2018-12-01T03:42:53.280Z,99207.60
2018-12-01T03:45:20.727Z,99199.06
2018-12-01T03:47:48.211Z,99210.02
2018-12-01T03:50:15.684Z,99211.48
2018-12-01T03:52:43.109Z,99213.45
2018-12-01T03:55:10.597Z,99209.66
2018-12-01T03:57:38.071Z,99216.80
2018-12-01T04:00:05.518Z,99215.44
2018-12-01T04:19:35.450Z,99227.31
2018-12-01T04:22:02.897Z,99220.92
2018-12-01T04:24:30.320Z,99230.31
2018-12-01T04:26:57.765Z,99228.82
2018-12-01T04:29:25.249Z,99240.52
2018-12-01T04:31:52.706Z,99223.77
2018-12-01T04:34:20.146Z,99241.03
2018-12-01T04:36:47.604Z,99238.16
2018-12-01T04:39:15.042Z,99243.69
2018-12-01T04:41:42.516Z,99240.24
2018-12-01T04:44:09.968Z,99247.03
2018-12-01T04:46:37.404Z,99253.25
2018-12-01T04:49:04.851Z,99257.57
2018-12-01T04:51:32.354Z,99263.50
2018-12-01T04:53:59.791Z,99251.12
2018-12-01T04:56:27.225Z,99254.86
2018-12-01T04:58:54.700Z,99272.52
2018-12-01T05:01:22.152Z,99264.87
2018-12-01T05:03:49.612Z,99270.51
2018-12-01T05:06:17.051Z,99266.41
2018-12-01T05:08:44.517Z,99271.20
2018-12-01T05:11:11.953Z,99272.05
2018-12-01T05:13:39.397Z,99282.33
2018-12-01T05:16:06.846Z,99275.64
2018-12-01T05:18:34.283Z,99265.72
2018-12-01T05:21:01.718Z,99270.85
2018-12-01T05:23:29.176Z,99272.16
2018-12-01T05:25:56.628Z,99265.66
2018-12-01T05:28:24.067Z,99263.81
2018-12-01T05:30:51.520Z,99261.72
2018-12-01T05:33:18.968Z,99266.95
2018-12-01T05:35:46.447Z,99260.11
2018-12-01T05:38:13.863Z,99272.45
2018-12-01T05:40:41.316Z,99272.37
2018-12-01T05:43:08.757Z,99273.73
2018-12-01T05:45:36.211Z,99274.51
2018-12-01T05:48:03.641Z,99272.20
2018-12-01T05:50:31.074Z,99274.73
2018-12-01T05:52:58.525Z,99274.08
2018-12-01T05:55:25.986Z,99278.88
2018-12-01T05:57:53.424Z,99274.67
2018-12-01T06:00:20.865Z,99268.18
2018-12-01T06:02:48.303Z,99278.63
2018-12-01T06:05:15.746Z,99268.25
2018-12-01T06:07:43.221Z,99269.63
2018-12-01T06:10:10.662Z,99266.80
2018-12-01T06:12:38.147Z,99267.25
2018-12-01T06:15:05.563Z,99261.17
2018-12-01T06:17:33.002Z,99261.86
2018-12-01T06:20:00.461Z,99251.29
2018-12-01T06:22:27.890Z,99256.84
2018-12-01T06:24:55.333Z,99255.92
2018-12-01T06:27:22.777Z,99254.92
2018-12-01T06:29:50.235Z,99251.89
2018-12-01T06:32:17.699Z,99242.44
2018-12-01T06:34:45.154Z,99242.36
2018-12-01T06:37:12.613Z,99233.49
2018-12-01T06:39:40.082Z,99243.03
2018-12-01T06:42:07.573Z,99243.61
2018-12-01T06:44:35.029Z,99243.52
2018-12-01T06:47:02.508Z,99247.09
2018-12-01T06:49:29.947Z,99250.80
2018-12-01T06:51:57.406Z,99253.70
2018-12-01T06:54:24.861Z,99255.22
2018-12-01T06:56:52.331Z,99248.62
2018-12-01T06:59:19.785Z,99245.84
2018-12-01T07:01:47.220Z,99253.80
2018-12-01T07:04:14.682Z,99257.73
2018-12-01T07:06:42.163Z,99257.01
2018-12-01T07:09:09.598Z,99256.55
2018-12-01T07:11:37.061Z,99246.70
2018-12-01T07:14:04.565Z,99259.58
2018-12-01T07:16:32.010Z,99260.86
2018-12-01T07:19:00.986Z,99260.42
2018-12-01T07:21:28.428Z,99255.27
2018-12-01T07:23:55.901Z,99260.27
2018-12-01T07:26:23.340Z,99254.25
2018-12-01T07:28:50.788Z,99259.46
2018-12-01T07:31:18.212Z,99260.03
2018-12-01T07:33:45.627Z,99256.48
2018-12-01T07:36:13.066Z,99254.11
2018-12-01T07:38:40.500Z,99259.98
2018-12-01T07:41:07.952Z,99254.94
2018-12-01T07:43:35.396Z,99254.78
2018-12-01T07:46:02.855Z,99254.13
2018-12-01T07:48:30.296Z,99256.97
2018-12-01T07:50:57.743Z,99251.05
2018-12-01T07:53:25.219Z,99254.52
2018-12-01T07:55:52.681Z,99247.68
2018-12-01T07:58:20.121Z,99255.49
2018-12-01T08:00:47.581Z,99259.23
2018-12-01T08:03:15.010Z,99251.05
2018-12-01T08:05:42.732Z,99251.72
2018-12-01T08:08:10.211Z,99247.45
2018-12-01T08:10:39.276Z,99247.24
2018-12-01T08:13:07.818Z,99240.38
2018-12-01T08:15:35.302Z,99245.00
2018-12-01T08:18:04.034Z,99247.21
2018-12-01T08:20:31.479Z,99238.32
2018-12-01T08:22:58.944Z,99234.58
2018-12-01T08:25:26.380Z,99234.03
2018-12-01T08:27:55.070Z,99232.42
2018-12-01T08:30:22.527Z,99243.73
2018-12-01T08:32:49.956Z,99240.34
2018-12-01T08:35:17.400Z,99244.52
2018-12-01T08:37:45.947Z,99254.75
2018-12-01T08:40:13.454Z,99251.24
2018-12-01T08:42:40.947Z,99258.31
2018-12-01T08:45:08.387Z,99250.86
2018-12-01T08:47:35.854Z,99247.85
2018-12-01T08:50:03.289Z,99240.38
2018-12-01T08:52:30.748Z,99236.69
2018-12-01T08:54:58.200Z,99238.69
2018-12-01T08:57:26.853Z,99235.66
2018-12-01T08:59:54.293Z,99250.21
2018-12-01T09:02:21.732Z,99249.42
2018-12-01T09:04:49.163Z,99257.30
2018-12-01T09:07:17.323Z,99262.77
2018-12-01T09:09:44.744Z,99260.66
2018-12-01T09:12:12.178Z,99259.42
2018-12-01T09:14:39.617Z,99259.13
2018-12-01T09:17:07.047Z,99262.06
2018-12-01T09:19:34.494Z,99264.58
2018-12-01T09:22:01.941Z,99273.68
2018-12-01T09:24:29.408Z,99279.28
2018-12-01T09:26:56.870Z,99274.72
2018-12-01T09:29:24.360Z,99279.22
2018-12-01T09:31:51.760Z,99268.66
2018-12-01T09:34:19.183Z,99270.08
2018-12-01T09:36:46.613Z,99285.06
2018-12-01T09:39:14.050Z,99276.75
2018-12-01T09:41:41.536Z,99273.17
2018-12-01T09:44:09.035Z,99283.15
2018-12-01T09:46:36.491Z,99272.98
2018-12-01T09:49:03.971Z,99258.35
2018-12-01T09:51:31.472Z,99265.62
2018-12-01T09:53:58.951Z,99264.86
2018-12-01T09:56:26.372Z,99266.56
2018-12-01T09:58:53.806Z,99267.31
2018-12-01T10:01:21.237Z,99260.44
2018-12-01T10:03:48.699Z,99263.12
2018-12-01T10:06:16.135Z,99256.43
2018-12-01T10:08:43.572Z,99240.46
2018-12-01T10:11:11.032Z,99242.12
2018-12-01T10:13:38.463Z,99239.67
2018-12-01T10:16:05.905Z,99224.65
2018-12-01T10:18:33.327Z,99231.96
2018-12-01T10:21:00.828Z,99226.70
2018-12-01T10:23:28.250Z,99217.05
2018-12-01T10:25:55.685Z,99210.28
2018-12-01T10:28:23.150Z,99206.80
2018-12-01T10:30:50.610Z,99215.66
2018-12-01T10:33:18.015Z,99203.22
2018-12-01T10:35:45.476Z,99198.34
2018-12-01T10:38:12.908Z,99201.59
2018-12-01T10:40:40.360Z,99192.41
2018-12-01T10:43:07.800Z,99195.04
2018-12-01T10:45:35.246Z,99194.60
2018-12-01T10:48:02.691Z,99198.05
2018-12-01T10:50:30.120Z,99194.15
2018-12-01T10:52:57.558Z,99189.64
2018-12-01T10:55:25.029Z,99193.39
2018-12-01T10:57:52.485Z,99194.95
2018-12-01T11:00:19.930Z,99200.11
2018-12-01T11:02:55.657Z,99197.88
2018-12-01T11:05:21.645Z,99200.70
2018-12-01T11:07:49.161Z,99202.03
2018-12-01T11:10:16.641Z,99197.88
2018-12-01T11:12:44.068Z,99205.33
2018-12-01T11:15:11.546Z,99201.14
2018-12-01T11:17:38.984Z,99192.90
2018-12-01T11:20:06.454Z,99186.58
2018-12-01T11:22:33.964Z,99190.30
2018-12-01T11:25:01.407Z,99186.92
2018-12-01T11:27:28.877Z,99187.09
2018-12-01T11:29:56.292Z,99175.75
2018-12-01T11:32:23.751Z,99172.70
2018-12-01T11:34:51.191Z,99183.31
2018-12-01T11:37:18.629Z,99169.26
2018-12-01T11:39:46.090Z,99165.05
2018-12-01T11:42:13.541Z,99165.42
2018-12-01T11:44:41.018Z,99158.70
2018-12-01T11:47:08.464Z,99154.11
2018-12-01T11:49:35.921Z,99158.62
2018-12-01T11:52:03.377Z,99148.29
2018-12-01T11:54:30.807Z,99137.25
2018-12-01T11:56:58.258Z,99141.52
2018-12-01T11:59:25.726Z,99131.69
2018-12-01T12:01:54.045Z,99121.34
2018-12-01T12:04:21.562Z,99124.37
2018-12-01T12:06:48.995Z,99120.06
2018-12-01T12:09:16.434Z,99116.02
2018-12-01T12:11:43.855Z,99114.56
2018-12-01T12:14:11.338Z,99106.45
2018-12-01T12:16:38.775Z,99105.81
2018-12-01T12:19:06.216Z,99099.97
2018-12-01T12:21:33.674Z,99091.16
2018-12-01T12:24:01.146Z,99091.23
2018-12-01T12:26:28.584Z,99087.60
2018-12-01T12:28:56.064Z,99096.63
2018-12-01T12:31:23.514Z,99100.94
2018-12-01T12:33:50.958Z,99090.06
2018-12-01T12:36:18.413Z,99085.63
2018-12-01T12:38:45.832Z,99081.37
2018-12-01T12:41:13.323Z,99078.90
2018-12-01T12:43:40.756Z,99080.39
2018-12-01T12:46:08.220Z,99074.17
2018-12-01T12:48:35.666Z,99076.20
2018-12-01T12:51:03.112Z,99079.33
2018-12-01T12:53:30.533Z,99067.69
2018-12-01T12:55:57.994Z,99071.33
2018-12-01T12:58:25.417Z,99064.10
2018-12-01T13:00:52.854Z,99062.03
2018-12-01T13:03:21.367Z,99064.72
2018-12-01T13:05:48.784Z,99054.80
2018-12-01T13:08:16.239Z,99050.11
2018-12-01T13:10:43.655Z,99047.09
2018-12-01T13:13:11.121Z,99048.43
2018-12-01T13:15:38.552Z,99044.80
2018-12-01T13:18:05.971Z,99048.36
2018-12-01T13:20:33.466Z,99043.23
2018-12-01T13:23:00.910Z,99050.50
2018-12-01T13:25:28.360Z,99040.23
2018-12-01T13:27:55.781Z,99030.81
2018-12-01T13:30:23.256Z,99032.69
2018-12-01T13:32:50.713Z,99036.16
2018-12-01T13:35:19.052Z,99036.44
2018-12-01T13:37:46.565Z,99035.46
2018-12-01T13:40:14.044Z,99035.89
2018-12-01T13:42:41.479Z,99033.19
2018-12-01T14:02:10.968Z,99024.53
2018-12-01T14:04:38.744Z,99018.66
2018-12-01T14:07:06.351Z,99019.72
2018-12-01T14:09:35.536Z,99012.49
2018-12-01T14:12:03.016Z,99007.11
2018-12-01T14:14:30.466Z,99008.35
2018-12-01T14:16:58.048Z,99020.23
2018-12-01T14:19:25.676Z,98999.94
2018-12-01T14:21:53.157Z,98998.56
2018-12-01T14:24:20.632Z,98998.39
2018-12-01T14:26:48.084Z,98988.34
2018-12-01T14:29:15.513Z,99000.03
2018-12-01T14:31:44.274Z,98993.05
2018-12-01T14:34:11.803Z,98992.49
2018-12-01T14:36:39.293Z,98995.62
2018-12-01T14:39:08.803Z,99002.50
2018-12-01T14:41:36.321Z,98991.25
2018-12-01T14:44:03.923Z,98997.92
2018-12-01T14:46:31.410Z,98994.64
2018-12-01T14:48:58.843Z,99001.55
2018-12-01T14:51:27.400Z,98991.62
2018-12-01T14:53:54.841Z,98995.11
2018-12-01T14:56:22.328Z,98988.86
2018-12-01T14:58:49.771Z,98980.86
2018-12-01T15:01:17.234Z,98985.00
2018-12-01T15:03:44.692Z,98977.73
2018-12-01T15:06:13.370Z,98978.95
2018-12-01T15:08:40.838Z,98979.18
2018-12-01T15:11:09.456Z,98968.09
2018-12-01T15:13:36.955Z,98969.38
2018-12-01T15:16:04.373Z,98972.17
2018-12-01T15:18:31.815Z,98973.33
2018-12-01T15:20:59.255Z,98959.58
2018-12-01T15:23:26.705Z,98961.66
2018-12-01T15:25:54.143Z,98960.73
2018-12-01T15:28:21.588Z,98952.40
2018-12-01T15:30:49.052Z,98955.80
2018-12-01T15:33:16.487Z,98960.52
2018-12-01T15:35:43.974Z,98970.16
2018-12-01T15:38:11.451Z,98963.87
2018-12-01T15:40:38.869Z,98961.84
2018-12-01T15:43:06.307Z,98970.56
2018-12-01T15:45:33.748Z,98964.64
2018-12-01T15:48:01.966Z,98961.64
2018-12-01T15:50:38.931Z,98959.95
2018-12-01T15:53:06.775Z,98951.49
2018-12-01T15:55:35.415Z,98940.33
2018-12-01T15:58:02.862Z,98933.11
2018-12-01T16:00:30.311Z,98929.45
2018-12-01T16:02:57.772Z,98925.22
2018-12-01T16:05:25.213Z,98921.91
2018-12-01T16:07:52.636Z,98928.84
2018-12-01T16:10:20.176Z,98929.86
2018-12-01T16:12:48.517Z,98920.08
2018-12-01T16:15:16.033Z,98918.39
2018-12-01T16:17:43.462Z,98906.22
2018-12-01T16:20:10.926Z,98904.30
2018-12-01T16:22:38.369Z,98900.92
2018-12-01T16:25:05.821Z,98902.70
2018-12-01T16:27:33.260Z,98892.23
2018-12-01T16:30:00.695Z,98893.27
2018-12-01T16:32:28.135Z,98887.28
2018-12-01T16:34:55.570Z,98878.53
2018-12-01T16:37:23.032Z,98870.31
2018-12-01T16:39:50.513Z,98878.47
2018-12-01T16:42:17.954Z,98882.83
2018-12-01T16:44:45.393Z,98865.66
2018-12-01T16:47:12.832Z,98868.48
2018-12-01T16:49:41.731Z,98868.07
2018-12-01T16:52:09.162Z,98866.45
2018-12-01T16:54:36.629Z,98864.69
2018-12-01T16:57:04.073Z,98869.77
2018-12-01T16:59:31.542Z,98867.61
2018-12-01T17:01:58.982Z,98867.98
2018-12-01T17:04:26.418Z,98858.41
2018-12-01T17:06:53.858Z,98856.85
2018-12-01T17:09:21.294Z,98848.89
2018-12-01T17:11:48.757Z,98848.96
2018-12-01T17:14:16.173Z,98836.38
2018-12-01T17:16:43.612Z,98832.66
2018-12-01T17:19:11.059Z,98840.38
2018-12-01T17:21:38.503Z,98832.78
2018-12-01T17:24:05.939Z,98825.17
2018-12-01T17:26:33.375Z,98812.16
2018-12-01T17:29:00.795Z,98805.64
2018-12-01T17:31:28.254Z,98785.78
2018-12-01T17:33:55.680Z,98790.14
2018-12-01T17:36:23.120Z,98779.69
2018-12-01T17:38:50.611Z,98772.41
2018-12-01T17:41:18.031Z,98767.89
2018-12-01T17:43:45.468Z,98763.25
2018-12-01T17:46:12.925Z,98757.78
2018-12-01T17:48:40.341Z,98759.50
2018-12-01T17:51:07.766Z,98747.27
2018-12-01T17:53:35.216Z,98753.77
2018-12-01T17:58:36.403Z,98740.42
2018-12-01T18:01:03.865Z,98726.38
2018-12-01T18:03:31.278Z,98719.90
2018-12-01T18:05:58.705Z,98721.84
2018-12-01T18:08:26.155Z,98710.88
2018-12-01T18:10:54.554Z,98705.58
2018-12-01T18:13:21.988Z,98705.82
2018-12-01T18:15:49.422Z,98697.91
2018-12-01T18:18:16.911Z,98691.36
2018-12-01T18:20:44.403Z,98694.63
2018-12-01T18:23:11.897Z,98686.21
2018-12-01T18:25:39.334Z,98690.93
2018-12-01T18:28:06.764Z,98690.61
2018-12-01T18:30:34.206Z,98685.78
2018-12-01T18:33:01.632Z,98692.77
2018-12-01T18:35:29.057Z,98684.07
2018-12-01T18:37:56.506Z,98678.85
2018-12-01T18:40:23.969Z,98679.89
2018-12-01T18:42:51.451Z,98677.41
2018-12-01T18:45:18.873Z,98673.13
2018-12-01T18:47:46.329Z,98666.92
2018-12-01T18:50:13.852Z,98673.95
2018-12-01T18:52:41.307Z,98668.88
2018-12-01T18:55:08.728Z,98652.66
2018-12-01T18:57:36.172Z,98651.41
2018-12-01T19:00:03.616Z,98652.95
2018-12-01T19:02:31.049Z,98645.37
2018-12-01T19:04:58.487Z,98645.30
2018-12-01T19:07:25.925Z,98644.83
2018-12-01T19:09:53.445Z,98630.81
2018-12-01T19:12:20.902Z,98633.30
2018-12-01T19:14:48.311Z,98634.13
2018-12-01T19:17:15.747Z,98623.45
2018-12-01T19:19:43.176Z,98621.95
2018-12-01T19:22:10.601Z,98622.13
2018-12-01T19:24:38.048Z,98614.48
2018-12-01T19:27:05.488Z,98600.00
2018-12-01T19:29:32.913Z,98601.83
2018-12-01T19:32:00.376Z,98594.08
2018-12-01T19:34:27.830Z,98590.22
2018-12-01T19:36:55.294Z,98590.69
2018-12-01T19:39:22.733Z,98580.22
2018-12-01T19:41:50.143Z,98576.77
2018-12-01T19:44:17.570Z,98563.88
2018-12-01T19:46:45.968Z,98566.45
2018-12-01T19:49:13.409Z,98574.02
2018-12-01T19:51:40.843Z,98566.55
2018-12-01T19:54:08.279Z,98560.22
2018-12-01T19:56:35.739Z,98561.41
2018-12-01T19:59:03.183Z,98557.20
2018-12-01T20:01:30.616Z,98559.06
2018-12-01T20:03:58.048Z,98558.23
2018-12-01T20:06:25.485Z,98549.85
2018-12-01T20:08:52.941Z,98562.96
2018-12-01T20:11:20.375Z,98556.37
2018-12-01T20:13:47.813Z,98543.25
2018-12-01T20:16:15.242Z,98543.22
2018-12-01T20:18:42.689Z,98544.62
2018-12-01T20:21:10.123Z,98552.69
2018-12-01T20:23:37.562Z,98554.23
2018-12-01T20:26:04.993Z,98536.33
2018-12-01T20:28:32.463Z,98536.55
2018-12-01T20:30:59.888Z,98545.52
2018-12-01T20:33:27.305Z,98543.11
2018-12-01T20:35:54.736Z,98536.76
2018-12-01T20:38:22.159Z,98523.99
2018-12-01T20:40:49.621Z,98522.44
2018-12-01T20:43:17.046Z,98514.34
2018-12-01T20:45:44.526Z,98514.27
2018-12-01T20:48:11.964Z,98518.34
2018-12-01T20:50:39.432Z,98513.44
2018-12-01T20:53:06.895Z,98510.71
2018-12-01T20:55:34.337Z,98498.91
2018-12-01T20:58:01.760Z,98502.70
2018-12-01T21:00:29.216Z,98508.87
2018-12-01T21:02:56.685Z,98511.42
2018-12-01T21:05:24.144Z,98504.44
2018-12-01T21:07:51.607Z,98502.66
2018-12-01T21:10:20.220Z,98499.70
2018-12-01T21:12:48.516Z,98501.08
2018-12-01T21:15:15.979Z,98507.02
2018-12-01T21:17:43.402Z,98503.78
2018-12-01T21:20:10.864Z,98499.52
2018-12-01T21:22:38.322Z,98493.39
2018-12-01T21:25:07.988Z,98489.08
2018-12-01T21:27:35.448Z,98489.83
2018-12-01T21:30:02.887Z,98487.53
2018-12-01T21:32:30.346Z,98477.41
2018-12-01T21:34:57.768Z,98473.31
2018-12-01T21:37:25.242Z,98475.31
2018-12-01T21:39:53.659Z,98467.42
2018-12-01T21:42:21.191Z,98471.36
2018-12-01T21:44:49.647Z,98458.25
2018-12-01T21:47:18.229Z,98461.98
2018-12-01T21:49:45.708Z,98445.47
2018-12-01T21:52:13.131Z,98461.42
2018-12-01T21:54:40.596Z,98454.50
2018-12-01T21:57:08.032Z,98443.28
2018-12-01T21:59:35.519Z,98448.52
2018-12-01T22:02:02.937Z,98446.66
2018-12-01T22:04:30.419Z,98447.10
2018-12-01T22:06:57.860Z,98455.91
2018-12-01T22:09:25.315Z,98437.97
2018-12-01T22:11:52.779Z,98441.17
2018-12-01T22:14:22.425Z,98451.94
2018-12-01T22:16:49.906Z,98454.47
2018-12-01T22:19:18.126Z,98443.02
2018-12-01T22:21:45.580Z,98449.96
2018-12-01T22:24:13.060Z,98452.98
2018-12-01T22:26:40.513Z,98449.96
2018-12-01T22:29:07.963Z,98452.52
2018-12-01T22:31:35.440Z,98441.02
2018-12-01T22:34:03.985Z,98450.79
2018-12-01T22:36:31.424Z,98439.27
2018-12-01T22:39:02.164Z,98448.56
2018-12-01T22:41:29.659Z,98435.38
2018-12-01T22:43:57.110Z,98435.92
2018-12-01T22:46:25.818Z,98434.17
2018-12-01T22:48:54.494Z,98427.84
2018-12-01T22:51:21.979Z,98425.91
2018-12-01T22:53:58.154Z,98430.16
2018-12-01T22:56:37.410Z,98423.13
2018-12-01T22:59:06.675Z,98424.42
2018-12-01T23:01:34.136Z,98428.42
2018-12-01T23:04:01.569Z,98419.62
2018-12-01T23:06:29.020Z,98420.13
2018-12-01T23:08:56.462Z,98411.11
2018-12-01T23:11:24.204Z,98405.19
2018-12-01T23:13:51.679Z,98414.46
2018-12-01T23:16:19.168Z,98407.48
2018-12-01T23:18:49.017Z,98413.70
2018-12-01T23:21:20.634Z,98412.23
2018-12-01T23:23:44.011Z,98411.47
2018-12-01T23:26:12.670Z,98415.52
2018-12-01T23:28:41.332Z,98409.59
2018-12-01T23:31:10.512Z,98396.94
2018-12-01T23:33:38.047Z,98399.00
2018-12-01T23:36:05.512Z,98387.51
2018-12-01T23:38:36.721Z,98391.00
2018-12-01T23:41:04.188Z,98387.25
2018-12-01T23:43:31.680Z,98386.92
2018-12-01T23:45:59.156Z,98384.55
2018-12-01T23:48:26.641Z,98383.00
2018-12-01T23:50:55.321Z,98375.75
2018-12-01T23:53:22.866Z,98370.94
2018-12-01T23:55:50.409Z,98369.61
2018-12-01T23:58:21.470Z,98354.66
